sensor_id;sensor_type;location;lat;lon;timestamp;P1;durP1;ratioP1;P2;durP2;ratioP2
68870;SDS011;55906;52.278;6.808;2023-03-23T00:01:29;11.25;;;6.93;;
68870;SDS011;55906;52.278;6.808;2023-03-23T00:03:57;9.07;;;6.65;;
68870;SDS011;55906;52.278;6.808;2023-03-23T00:06:25;10.30;;;6.78;;
68870;SDS011;55906;52.278;6.808;2023-03-23T00:08:58;11.63;;;6.60;;
68870;SDS011;55906;52.278;6.808;2023-03-23T00:11:30;12.60;;;6.22;;
68870;SDS011;55906;52.278;6.808;2023-03-23T00:13:59;8.90;;;6.70;;
68870;SDS011;55906;52.278;6.808;2023-03-23T00:16:27;9.15;;;6.65;;
68870;SDS011;55906;52.278;6.808;2023-03-23T00:18:57;10.55;;;6.55;;
68870;SDS011;55906;52.278;6.808;2023-03-23T00:21:25;12.00;;;6.10;;
68870;SDS011;55906;52.278;6.808;2023-03-23T00:23:58;10.18;;;6.82;;
68870;SDS011;55906;52.278;6.808;2023-03-23T00:26:25;9.90;;;6.35;;
68870;SDS011;55906;52.278;6.808;2023-03-23T00:28:55;7.63;;;5.90;;
68870;SDS011;55906;52.278;6.808;2023-03-23T00:31:21;8.77;;;6.45;;
68870;SDS011;55906;52.278;6.808;2023-03-23T00:33:48;11.57;;;6.87;;
68870;SDS011;55906;52.278;6.808;2023-03-23T00:36:15;9.77;;;6.20;;
68870;SDS011;55906;52.278;6.808;2023-03-23T00:38:42;9.13;;;6.43;;
68870;SDS011;55906;52.278;6.808;2023-03-23T00:41:09;9.25;;;6.35;;
68870;SDS011;55906;52.278;6.808;2023-03-23T00:43:36;9.80;;;6.05;;
68870;SDS011;55906;52.278;6.808;2023-03-23T00:46:05;9.53;;;6.87;;
68870;SDS011;55906;52.278;6.808;2023-03-23T00:48:33;8.77;;;6.55;;
68870;SDS011;55906;52.278;6.808;2023-03-23T00:51:00;9.25;;;5.95;;
68870;SDS011;55906;52.278;6.808;2023-03-23T00:53:31;8.52;;;5.85;;
68870;SDS011;55906;52.278;6.808;2023-03-23T00:55:57;11.55;;;5.90;;
68870;SDS011;55906;52.278;6.808;2023-03-23T00:58:24;10.13;;;5.60;;
68870;SDS011;55906;52.278;6.808;2023-03-23T01:00:51;9.40;;;5.70;;
68870;SDS011;55906;52.278;6.808;2023-03-23T01:03:19;10.45;;;6.00;;
68870;SDS011;55906;52.278;6.808;2023-03-23T01:05:45;9.65;;;6.00;;
68870;SDS011;55906;52.278;6.808;2023-03-23T01:08:13;8.90;;;6.15;;
68870;SDS011;55906;52.278;6.808;2023-03-23T01:10:41;9.20;;;6.30;;
68870;SDS011;55906;52.278;6.808;2023-03-23T01:13:08;10.27;;;5.75;;
68870;SDS011;55906;52.278;6.808;2023-03-23T01:15:34;8.65;;;6.38;;
68870;SDS011;55906;52.278;6.808;2023-03-23T01:18:01;8.10;;;5.75;;
68870;SDS011;55906;52.278;6.808;2023-03-23T01:20:30;9.38;;;6.00;;
68870;SDS011;55906;52.278;6.808;2023-03-23T01:22:56;8.83;;;5.67;;
68870;SDS011;55906;52.278;6.808;2023-03-23T01:25:26;9.52;;;6.07;;
68870;SDS011;55906;52.278;6.808;2023-03-23T01:27:53;8.70;;;5.28;;
68870;SDS011;55906;52.278;6.808;2023-03-23T01:30:19;10.32;;;5.88;;
68870;SDS011;55906;52.278;6.808;2023-03-23T01:32:46;8.55;;;5.53;;
68870;SDS011;55906;52.278;6.808;2023-03-23T01:35:13;8.67;;;5.63;;
68870;SDS011;55906;52.278;6.808;2023-03-23T01:37:41;10.02;;;6.60;;
68870;SDS011;55906;52.278;6.808;2023-03-23T01:40:08;9.13;;;5.82;;
68870;SDS011;55906;52.278;6.808;2023-03-23T01:42:36;8.93;;;6.22;;
68870;SDS011;55906;52.278;6.808;2023-03-23T01:48:05;7.13;;;5.50;;
68870;SDS011;55906;52.278;6.808;2023-03-23T01:50:38;7.82;;;5.38;;
68870;SDS011;55906;52.278;6.808;2023-03-23T01:53:12;7.80;;;5.47;;
68870;SDS011;55906;52.278;6.808;2023-03-23T01:55:40;8.98;;;6.00;;
68870;SDS011;55906;52.278;6.808;2023-03-23T01:58:13;9.23;;;6.32;;
68870;SDS011;55906;52.278;6.808;2023-03-23T02:00:41;7.80;;;5.93;;
68870;SDS011;55906;52.278;6.808;2023-03-23T02:03:08;9.18;;;5.43;;
68870;SDS011;55906;52.278;6.808;2023-03-23T02:05:39;7.72;;;5.68;;
68870;SDS011;55906;52.278;6.808;2023-03-23T02:08:08;9.18;;;6.43;;
68870;SDS011;55906;52.278;6.808;2023-03-23T02:10:37;9.10;;;6.07;;
68870;SDS011;55906;52.278;6.808;2023-03-23T02:13:04;10.47;;;6.53;;
68870;SDS011;55906;52.278;6.808;2023-03-23T02:15:35;9.32;;;5.90;;
68870;SDS011;55906;52.278;6.808;2023-03-23T02:18:14;8.02;;;6.07;;
68870;SDS011;55906;52.278;6.808;2023-03-23T02:27:20;7.03;;;5.17;;
68870;SDS011;55906;52.278;6.808;2023-03-23T02:30:11;9.75;;;5.80;;
68870;SDS011;55906;52.278;6.808;2023-03-23T02:33:16;9.02;;;5.97;;
68870;SDS011;55906;52.278;6.808;2023-03-23T02:35:54;10.95;;;5.75;;
68870;SDS011;55906;52.278;6.808;2023-03-23T02:38:26;7.55;;;5.47;;
68870;SDS011;55906;52.278;6.808;2023-03-23T02:40:58;9.80;;;5.93;;
68870;SDS011;55906;52.278;6.808;2023-03-23T02:43:28;9.48;;;5.47;;
68870;SDS011;55906;52.278;6.808;2023-03-23T02:46:00;9.88;;;5.90;;
68870;SDS011;55906;52.278;6.808;2023-03-23T02:48:32;7.90;;;5.10;;
68870;SDS011;55906;52.278;6.808;2023-03-23T02:51:00;9.23;;;5.82;;
68870;SDS011;55906;52.278;6.808;2023-03-23T02:53:29;7.83;;;5.77;;
68870;SDS011;55906;52.278;6.808;2023-03-23T02:55:59;10.70;;;5.40;;
68870;SDS011;55906;52.278;6.808;2023-03-23T02:58:28;9.50;;;5.60;;
68870;SDS011;55906;52.278;6.808;2023-03-23T03:00:55;7.85;;;5.88;;
68870;SDS011;55906;52.278;6.808;2023-03-23T03:03:24;8.48;;;5.70;;
68870;SDS011;55906;52.278;6.808;2023-03-23T03:05:58;10.10;;;6.10;;
68870;SDS011;55906;52.278;6.808;2023-03-23T03:08:36;8.63;;;5.97;;
68870;SDS011;55906;52.278;6.808;2023-03-23T03:11:08;10.73;;;5.40;;
68870;SDS011;55906;52.278;6.808;2023-03-23T03:13:39;8.90;;;6.15;;
68870;SDS011;55906;52.278;6.808;2023-03-23T03:16:15;8.82;;;6.07;;
68870;SDS011;55906;52.278;6.808;2023-03-23T03:18:51;9.00;;;6.40;;
68870;SDS011;55906;52.278;6.808;2023-03-23T03:21:23;9.05;;;5.97;;
68870;SDS011;55906;52.278;6.808;2023-03-23T03:23:52;9.25;;;6.00;;
68870;SDS011;55906;52.278;6.808;2023-03-23T03:26:21;9.20;;;6.47;;
68870;SDS011;55906;52.278;6.808;2023-03-23T03:28:51;10.77;;;5.70;;
68870;SDS011;55906;52.278;6.808;2023-03-23T03:31:19;10.70;;;6.43;;
68870;SDS011;55906;52.278;6.808;2023-03-23T03:33:48;8.60;;;5.85;;
68870;SDS011;55906;52.278;6.808;2023-03-23T03:36:17;9.63;;;5.55;;
68870;SDS011;55906;52.278;6.808;2023-03-23T03:38:49;9.57;;;6.07;;
68870;SDS011;55906;52.278;6.808;2023-03-23T03:41:16;8.57;;;5.68;;
68870;SDS011;55906;52.278;6.808;2023-03-23T03:43:45;10.53;;;6.53;;
68870;SDS011;55906;52.278;6.808;2023-03-23T03:46:12;7.65;;;5.93;;
68870;SDS011;55906;52.278;6.808;2023-03-23T03:48:38;9.27;;;5.60;;
68870;SDS011;55906;52.278;6.808;2023-03-23T03:51:05;9.30;;;5.85;;
68870;SDS011;55906;52.278;6.808;2023-03-23T03:53:33;9.05;;;5.93;;
68870;SDS011;55906;52.278;6.808;2023-03-23T03:56:02;8.23;;;5.80;;
68870;SDS011;55906;52.278;6.808;2023-03-23T03:58:30;10.15;;;5.68;;
68870;SDS011;55906;52.278;6.808;2023-03-23T04:00:58;8.60;;;5.45;;
68870;SDS011;55906;52.278;6.808;2023-03-23T04:03:25;8.13;;;6.25;;
68870;SDS011;55906;52.278;6.808;2023-03-23T04:05:52;8.27;;;6.28;;
68870;SDS011;55906;52.278;6.808;2023-03-23T04:08:20;10.17;;;6.03;;
68870;SDS011;55906;52.278;6.808;2023-03-23T04:10:48;8.35;;;6.03;;
68870;SDS011;55906;52.278;6.808;2023-03-23T04:13:16;8.68;;;6.00;;
68870;SDS011;55906;52.278;6.808;2023-03-23T04:15:43;7.07;;;5.22;;
68870;SDS011;55906;52.278;6.808;2023-03-23T04:18:10;7.97;;;5.32;;
68870;SDS011;55906;52.278;6.808;2023-03-23T04:20:37;7.80;;;5.77;;
68870;SDS011;55906;52.278;6.808;2023-03-23T04:23:04;9.40;;;6.07;;
68870;SDS011;55906;52.278;6.808;2023-03-23T04:25:31;11.25;;;6.40;;
68870;SDS011;55906;52.278;6.808;2023-03-23T04:27:58;10.43;;;6.18;;
68870;SDS011;55906;52.278;6.808;2023-03-23T04:30:28;8.95;;;5.60;;
68870;SDS011;55906;52.278;6.808;2023-03-23T04:32:57;9.60;;;5.60;;
68870;SDS011;55906;52.278;6.808;2023-03-23T04:35:26;8.55;;;5.90;;
68870;SDS011;55906;52.278;6.808;2023-03-23T04:37:54;9.10;;;6.28;;
68870;SDS011;55906;52.278;6.808;2023-03-23T04:40:22;8.63;;;6.47;;
68870;SDS011;55906;52.278;6.808;2023-03-23T04:42:50;7.32;;;5.80;;
68870;SDS011;55906;52.278;6.808;2023-03-23T04:45:18;8.00;;;6.07;;
68870;SDS011;55906;52.278;6.808;2023-03-23T04:47:48;9.32;;;6.53;;
68870;SDS011;55906;52.278;6.808;2023-03-23T04:50:18;8.50;;;6.25;;
68870;SDS011;55906;52.278;6.808;2023-03-23T04:52:49;8.10;;;6.20;;
68870;SDS011;55906;52.278;6.808;2023-03-23T04:55:17;11.02;;;6.22;;
68870;SDS011;55906;52.278;6.808;2023-03-23T04:57:44;10.23;;;6.33;;
68870;SDS011;55906;52.278;6.808;2023-03-23T05:00:11;8.85;;;6.57;;
68870;SDS011;55906;52.278;6.808;2023-03-23T05:02:41;9.07;;;5.90;;
68870;SDS011;55906;52.278;6.808;2023-03-23T05:05:10;8.38;;;6.07;;
68870;SDS011;55906;52.278;6.808;2023-03-23T05:07:38;8.38;;;5.80;;
68870;SDS011;55906;52.278;6.808;2023-03-23T05:10:06;9.20;;;5.83;;
68870;SDS011;55906;52.278;6.808;2023-03-23T05:12:34;8.05;;;6.43;;
68870;SDS011;55906;52.278;6.808;2023-03-23T05:15:01;7.57;;;5.93;;
68870;SDS011;55906;52.278;6.808;2023-03-23T05:17:27;9.02;;;6.15;;
68870;SDS011;55906;52.278;6.808;2023-03-23T05:19:55;8.13;;;5.78;;
68870;SDS011;55906;52.278;6.808;2023-03-23T05:22:23;9.10;;;6.07;;
68870;SDS011;55906;52.278;6.808;2023-03-23T05:24:49;7.20;;;5.72;;
68870;SDS011;55906;52.278;6.808;2023-03-23T05:27:17;8.82;;;5.93;;
68870;SDS011;55906;52.278;6.808;2023-03-23T05:29:44;9.43;;;6.53;;
68870;SDS011;55906;52.278;6.808;2023-03-23T05:32:13;8.63;;;5.90;;
68870;SDS011;55906;52.278;6.808;2023-03-23T05:34:40;7.57;;;6.17;;
68870;SDS011;55906;52.278;6.808;2023-03-23T05:37:08;7.90;;;5.93;;
68870;SDS011;55906;52.278;6.808;2023-03-23T05:39:38;7.15;;;5.57;;
68870;SDS011;55906;52.278;6.808;2023-03-23T05:42:05;8.48;;;6.47;;
68870;SDS011;55906;52.278;6.808;2023-03-23T05:44:32;8.30;;;5.95;;
68870;SDS011;55906;52.278;6.808;2023-03-23T05:46:59;7.50;;;5.90;;
68870;SDS011;55906;52.278;6.808;2023-03-23T05:49:26;8.48;;;5.90;;
68870;SDS011;55906;52.278;6.808;2023-03-23T05:51:53;10.63;;;6.47;;
68870;SDS011;55906;52.278;6.808;2023-03-23T05:54:20;10.05;;;5.80;;
68870;SDS011;55906;52.278;6.808;2023-03-23T05:56:48;9.82;;;5.93;;
68870;SDS011;55906;52.278;6.808;2023-03-23T05:59:15;7.77;;;5.50;;
68870;SDS011;55906;52.278;6.808;2023-03-23T06:01:42;10.23;;;5.88;;
68870;SDS011;55906;52.278;6.808;2023-03-23T06:04:08;9.23;;;5.53;;
68870;SDS011;55906;52.278;6.808;2023-03-23T06:06:36;8.50;;;5.57;;
68870;SDS011;55906;52.278;6.808;2023-03-23T06:09:03;8.45;;;5.65;;
68870;SDS011;55906;52.278;6.808;2023-03-23T06:11:30;9.87;;;5.63;;
68870;SDS011;55906;52.278;6.808;2023-03-23T06:13:58;9.00;;;5.30;;
68870;SDS011;55906;52.278;6.808;2023-03-23T06:16:24;9.52;;;5.07;;
68870;SDS011;55906;52.278;6.808;2023-03-23T06:18:51;8.43;;;4.95;;
68870;SDS011;55906;52.278;6.808;2023-03-23T06:21:18;10.43;;;5.38;;
68870;SDS011;55906;52.278;6.808;2023-03-23T06:23:45;11.50;;;5.40;;
68870;SDS011;55906;52.278;6.808;2023-03-23T06:26:13;8.77;;;5.05;;
68870;SDS011;55906;52.278;6.808;2023-03-23T06:28:41;11.32;;;5.43;;
68870;SDS011;55906;52.278;6.808;2023-03-23T06:31:10;10.05;;;5.15;;
68870;SDS011;55906;52.278;6.808;2023-03-23T06:33:38;10.30;;;5.20;;
68870;SDS011;55906;52.278;6.808;2023-03-23T06:36:06;9.73;;;4.63;;
68870;SDS011;55906;52.278;6.808;2023-03-23T06:38:33;8.35;;;4.85;;
68870;SDS011;55906;52.278;6.808;2023-03-23T06:41:01;8.18;;;4.60;;
68870;SDS011;55906;52.278;6.808;2023-03-23T06:43:27;9.20;;;4.28;;
68870;SDS011;55906;52.278;6.808;2023-03-23T06:45:54;10.82;;;5.10;;
68870;SDS011;55906;52.278;6.808;2023-03-23T06:48:22;10.73;;;4.77;;
68870;SDS011;55906;52.278;6.808;2023-03-23T06:50:49;11.30;;;5.53;;
68870;SDS011;55906;52.278;6.808;2023-03-23T06:53:15;11.00;;;4.53;;
68870;SDS011;55906;52.278;6.808;2023-03-23T06:55:42;8.63;;;4.53;;
68870;SDS011;55906;52.278;6.808;2023-03-23T06:58:10;9.18;;;4.80;;
68870;SDS011;55906;52.278;6.808;2023-03-23T07:00:36;11.53;;;4.50;;
68870;SDS011;55906;52.278;6.808;2023-03-23T07:03:03;9.35;;;4.80;;
68870;SDS011;55906;52.278;6.808;2023-03-23T07:05:32;9.75;;;4.40;;
68870;SDS011;55906;52.278;6.808;2023-03-23T07:07:59;7.70;;;4.28;;
68870;SDS011;55906;52.278;6.808;2023-03-23T07:10:25;6.95;;;4.22;;
68870;SDS011;55906;52.278;6.808;2023-03-23T07:12:52;14.53;;;5.10;;
68870;SDS011;55906;52.278;6.808;2023-03-23T07:15:19;8.75;;;4.57;;
68870;SDS011;55906;52.278;6.808;2023-03-23T07:17:46;6.63;;;4.63;;
68870;SDS011;55906;52.278;6.808;2023-03-23T07:20:13;8.57;;;4.63;;
68870;SDS011;55906;52.278;6.808;2023-03-23T07:22:42;8.50;;;4.43;;
68870;SDS011;55906;52.278;6.808;2023-03-23T07:25:08;10.00;;;4.67;;
68870;SDS011;55906;52.278;6.808;2023-03-23T07:27:35;9.82;;;4.30;;
68870;SDS011;55906;52.278;6.808;2023-03-23T07:30:03;11.45;;;4.95;;
68870;SDS011;55906;52.278;6.808;2023-03-23T07:32:30;7.72;;;4.50;;
68870;SDS011;55906;52.278;6.808;2023-03-23T07:34:56;8.25;;;4.82;;
68870;SDS011;55906;52.278;6.808;2023-03-23T07:37:24;9.07;;;5.40;;
68870;SDS011;55906;52.278;6.808;2023-03-23T07:39:52;9.13;;;4.15;;
68870;SDS011;55906;52.278;6.808;2023-03-23T07:42:19;7.75;;;4.38;;
68870;SDS011;55906;52.278;6.808;2023-03-23T07:44:45;8.52;;;5.15;;
68870;SDS011;55906;52.278;6.808;2023-03-23T07:47:12;10.55;;;5.07;;
68870;SDS011;55906;52.278;6.808;2023-03-23T07:49:39;10.47;;;4.77;;
68870;SDS011;55906;52.278;6.808;2023-03-23T07:52:05;9.52;;;4.88;;
68870;SDS011;55906;52.278;6.808;2023-03-23T07:54:32;9.15;;;4.85;;
68870;SDS011;55906;52.278;6.808;2023-03-23T07:57:00;9.30;;;4.95;;
68870;SDS011;55906;52.278;6.808;2023-03-23T07:59:27;9.65;;;4.80;;
68870;SDS011;55906;52.278;6.808;2023-03-23T08:01:54;9.57;;;5.10;;
68870;SDS011;55906;52.278;6.808;2023-03-23T08:04:23;8.82;;;5.07;;
68870;SDS011;55906;52.278;6.808;2023-03-23T08:06:49;9.98;;;4.78;;
68870;SDS011;55906;52.278;6.808;2023-03-23T08:09:16;8.60;;;4.80;;
68870;SDS011;55906;52.278;6.808;2023-03-23T08:11:42;11.60;;;4.57;;
68870;SDS011;55906;52.278;6.808;2023-03-23T08:14:10;10.93;;;4.67;;
68870;SDS011;55906;52.278;6.808;2023-03-23T08:16:37;9.15;;;4.32;;
68870;SDS011;55906;52.278;6.808;2023-03-23T08:19:04;9.02;;;4.57;;
68870;SDS011;55906;52.278;6.808;2023-03-23T08:21:32;9.15;;;4.18;;
68870;SDS011;55906;52.278;6.808;2023-03-23T08:24:00;7.13;;;3.95;;
68870;SDS011;55906;52.278;6.808;2023-03-23T08:26:27;12.00;;;4.13;;
68870;SDS011;55906;52.278;6.808;2023-03-23T08:28:53;8.60;;;4.07;;
68870;SDS011;55906;52.278;6.808;2023-03-23T08:31:21;9.68;;;4.50;;
68870;SDS011;55906;52.278;6.808;2023-03-23T08:33:48;9.07;;;4.55;;
68870;SDS011;55906;52.278;6.808;2023-03-23T08:36:15;15.80;;;3.78;;
68870;SDS011;55906;52.278;6.808;2023-03-23T08:38:43;9.93;;;3.77;;
68870;SDS011;55906;52.278;6.808;2023-03-23T08:41:09;10.63;;;3.45;;
68870;SDS011;55906;52.278;6.808;2023-03-23T08:43:36;7.38;;;3.42;;
68870;SDS011;55906;52.278;6.808;2023-03-23T08:46:05;7.95;;;3.28;;
68870;SDS011;55906;52.278;6.808;2023-03-23T08:48:36;7.93;;;3.38;;
68870;SDS011;55906;52.278;6.808;2023-03-23T08:51:03;6.13;;;3.53;;
68870;SDS011;55906;52.278;6.808;2023-03-23T08:53:32;4.97;;;3.00;;
68870;SDS011;55906;52.278;6.808;2023-03-23T08:56:02;7.05;;;3.13;;
68870;SDS011;55906;52.278;6.808;2023-03-23T08:58:30;5.18;;;3.05;;
68870;SDS011;55906;52.278;6.808;2023-03-23T09:00:57;7.28;;;3.30;;
68870;SDS011;55906;52.278;6.808;2023-03-23T09:03:24;6.70;;;3.53;;
68870;SDS011;55906;52.278;6.808;2023-03-23T09:05:53;6.20;;;3.63;;
68870;SDS011;55906;52.278;6.808;2023-03-23T09:08:23;5.45;;;2.88;;
68870;SDS011;55906;52.278;6.808;2023-03-23T09:10:50;6.40;;;3.10;;
68870;SDS011;55906;52.278;6.808;2023-03-23T09:13:17;8.50;;;3.40;;
68870;SDS011;55906;52.278;6.808;2023-03-23T09:15:43;7.27;;;3.37;;
68870;SDS011;55906;52.278;6.808;2023-03-23T09:18:10;5.78;;;3.42;;
68870;SDS011;55906;52.278;6.808;2023-03-23T09:20:37;8.85;;;3.47;;
68870;SDS011;55906;52.278;6.808;2023-03-23T09:23:06;7.53;;;4.03;;
68870;SDS011;55906;52.278;6.808;2023-03-23T09:25:33;6.47;;;3.80;;
68870;SDS011;55906;52.278;6.808;2023-03-23T09:27:59;7.20;;;4.00;;
68870;SDS011;55906;52.278;6.808;2023-03-23T09:30:27;4.68;;;3.20;;
68870;SDS011;55906;52.278;6.808;2023-03-23T09:32:55;7.50;;;3.85;;
68870;SDS011;55906;52.278;6.808;2023-03-23T09:35:22;9.00;;;3.85;;
68870;SDS011;55906;52.278;6.808;2023-03-23T09:37:51;7.97;;;3.78;;
68870;SDS011;55906;52.278;6.808;2023-03-23T09:40:20;7.77;;;3.77;;
68870;SDS011;55906;52.278;6.808;2023-03-23T09:42:55;8.05;;;3.80;;
68870;SDS011;55906;52.278;6.808;2023-03-23T09:45:33;7.88;;;3.30;;
68870;SDS011;55906;52.278;6.808;2023-03-23T09:48:12;10.35;;;3.78;;
68870;SDS011;55906;52.278;6.808;2023-03-23T09:50:52;9.27;;;4.10;;
68870;SDS011;55906;52.278;6.808;2023-03-23T09:53:27;7.67;;;3.70;;
68870;SDS011;55906;52.278;6.808;2023-03-23T09:56:01;7.63;;;3.63;;
68870;SDS011;55906;52.278;6.808;2023-03-23T09:58:36;7.95;;;3.63;;
68870;SDS011;55906;52.278;6.808;2023-03-23T10:01:10;9.63;;;3.92;;
68870;SDS011;55906;52.278;6.808;2023-03-23T10:03:43;8.57;;;3.88;;
68870;SDS011;55906;52.278;6.808;2023-03-23T10:06:12;7.30;;;3.40;;
68870;SDS011;55906;52.278;6.808;2023-03-23T10:08:43;8.32;;;3.53;;
68870;SDS011;55906;52.278;6.808;2023-03-23T10:11:16;6.70;;;3.33;;
68870;SDS011;55906;52.278;6.808;2023-03-23T10:14:00;9.63;;;3.60;;
68870;SDS011;55906;52.278;6.808;2023-03-23T10:16:52;8.18;;;4.00;;
68870;SDS011;55906;52.278;6.808;2023-03-23T10:19:27;6.63;;;3.43;;
68870;SDS011;55906;52.278;6.808;2023-03-23T10:22:00;7.47;;;4.03;;
68870;SDS011;55906;52.278;6.808;2023-03-23T10:24:34;9.90;;;3.65;;
68870;SDS011;55906;52.278;6.808;2023-03-23T10:27:05;9.13;;;4.38;;
68870;SDS011;55906;52.278;6.808;2023-03-23T10:29:41;7.90;;;3.53;;
68870;SDS011;55906;52.278;6.808;2023-03-23T10:32:13;7.07;;;3.23;;
68870;SDS011;55906;52.278;6.808;2023-03-23T10:34:41;6.95;;;3.35;;
68870;SDS011;55906;52.278;6.808;2023-03-23T10:37:12;7.75;;;3.03;;
68870;SDS011;55906;52.278;6.808;2023-03-23T10:39:45;7.40;;;3.17;;
68870;SDS011;55906;52.278;6.808;2023-03-23T10:42:22;7.10;;;3.10;;
68870;SDS011;55906;52.278;6.808;2023-03-23T10:44:51;5.50;;;2.80;;
68870;SDS011;55906;52.278;6.808;2023-03-23T10:47:18;6.70;;;2.30;;
68870;SDS011;55906;52.278;6.808;2023-03-23T10:49:45;8.07;;;3.00;;
68870;SDS011;55906;52.278;6.808;2023-03-23T10:52:23;4.82;;;2.40;;
68870;SDS011;55906;52.278;6.808;2023-03-23T10:54:55;6.60;;;2.40;;
68870;SDS011;55906;52.278;6.808;2023-03-23T10:57:25;9.33;;;2.60;;
68870;SDS011;55906;52.278;6.808;2023-03-23T10:59:57;7.40;;;2.60;;
68870;SDS011;55906;52.278;6.808;2023-03-23T11:02:26;7.43;;;2.80;;
68870;SDS011;55906;52.278;6.808;2023-03-23T11:04:55;7.60;;;2.95;;
68870;SDS011;55906;52.278;6.808;2023-03-23T11:07:30;7.93;;;2.97;;
68870;SDS011;55906;52.278;6.808;2023-03-23T11:10:04;9.07;;;2.63;;
68870;SDS011;55906;52.278;6.808;2023-03-23T11:12:44;7.03;;;3.05;;
68870;SDS011;55906;52.278;6.808;2023-03-23T11:15:27;8.02;;;2.65;;
68870;SDS011;55906;52.278;6.808;2023-03-23T11:17:57;9.38;;;3.13;;
68870;SDS011;55906;52.278;6.808;2023-03-23T11:20:25;7.88;;;3.40;;
68870;SDS011;55906;52.278;6.808;2023-03-23T11:22:53;11.17;;;3.23;;
68870;SDS011;55906;52.278;6.808;2023-03-23T11:25:21;8.48;;;2.80;;
68870;SDS011;55906;52.278;6.808;2023-03-23T11:27:49;8.35;;;2.80;;
68870;SDS011;55906;52.278;6.808;2023-03-23T11:30:21;8.88;;;2.90;;
68870;SDS011;55906;52.278;6.808;2023-03-23T11:32:52;7.78;;;2.80;;
68870;SDS011;55906;52.278;6.808;2023-03-23T11:35:21;9.23;;;3.10;;
68870;SDS011;55906;52.278;6.808;2023-03-23T11:37:50;7.22;;;3.10;;
68870;SDS011;55906;52.278;6.808;2023-03-23T11:40:19;9.45;;;2.67;;
68870;SDS011;55906;52.278;6.808;2023-03-23T11:42:49;10.27;;;2.97;;
68870;SDS011;55906;52.278;6.808;2023-03-23T11:45:30;9.10;;;2.80;;
68870;SDS011;55906;52.278;6.808;2023-03-23T11:48:01;9.23;;;2.83;;
68870;SDS011;55906;52.278;6.808;2023-03-23T11:50:43;10.18;;;3.20;;
68870;SDS011;55906;52.278;6.808;2023-03-23T11:53:15;6.55;;;2.38;;
68870;SDS011;55906;52.278;6.808;2023-03-23T11:56:00;8.57;;;2.70;;
68870;SDS011;55906;52.278;6.808;2023-03-23T11:58:33;8.55;;;3.08;;
68870;SDS011;55906;52.278;6.808;2023-03-23T12:01:04;8.07;;;3.03;;
68870;SDS011;55906;52.278;6.808;2023-03-23T12:03:41;9.15;;;2.72;;
68870;SDS011;55906;52.278;6.808;2023-03-23T12:06:19;9.85;;;2.65;;
68870;SDS011;55906;52.278;6.808;2023-03-23T12:08:55;7.38;;;3.03;;
68870;SDS011;55906;52.278;6.808;2023-03-23T12:11:32;6.32;;;2.33;;
68870;SDS011;55906;52.278;6.808;2023-03-23T12:14:12;9.03;;;2.60;;
68870;SDS011;55906;52.278;6.808;2023-03-23T12:16:55;10.20;;;2.65;;
68870;SDS011;55906;52.278;6.808;2023-03-23T12:19:38;8.25;;;2.67;;
68870;SDS011;55906;52.278;6.808;2023-03-23T12:22:16;6.93;;;2.40;;
68870;SDS011;55906;52.278;6.808;2023-03-23T12:24:54;6.53;;;2.60;;
68870;SDS011;55906;52.278;6.808;2023-03-23T12:27:33;9.40;;;3.03;;
68870;SDS011;55906;52.278;6.808;2023-03-23T12:33:00;6.65;;;2.70;;
68870;SDS011;55906;52.278;6.808;2023-03-23T12:35:40;9.25;;;3.13;;
68870;SDS011;55906;52.278;6.808;2023-03-23T12:38:26;8.93;;;2.63;;
68870;SDS011;55906;52.278;6.808;2023-03-23T12:41:11;8.40;;;2.80;;
68870;SDS011;55906;52.278;6.808;2023-03-23T12:43:45;6.65;;;2.97;;
68870;SDS011;55906;52.278;6.808;2023-03-23T12:46:21;8.48;;;3.15;;
68870;SDS011;55906;52.278;6.808;2023-03-23T12:48:58;11.48;;;3.45;;
68870;SDS011;55906;52.278;6.808;2023-03-23T12:51:29;8.55;;;3.15;;
68870;SDS011;55906;52.278;6.808;2023-03-23T12:54:03;9.27;;;3.10;;
68870;SDS011;55906;52.278;6.808;2023-03-23T12:56:39;7.60;;;3.00;;
68870;SDS011;55906;52.278;6.808;2023-03-23T12:59:11;9.10;;;2.90;;
68870;SDS011;55906;52.278;6.808;2023-03-23T13:01:45;8.45;;;3.22;;
68870;SDS011;55906;52.278;6.808;2023-03-23T13:04:15;6.65;;;3.10;;
68870;SDS011;55906;52.278;6.808;2023-03-23T13:06:47;6.73;;;2.60;;
68870;SDS011;55906;52.278;6.808;2023-03-23T13:09:16;9.65;;;3.58;;
68870;SDS011;55906;52.278;6.808;2023-03-23T13:11:47;6.95;;;2.90;;
68870;SDS011;55906;52.278;6.808;2023-03-23T13:14:18;8.13;;;3.00;;
68870;SDS011;55906;52.278;6.808;2023-03-23T13:17:02;8.55;;;3.88;;
68870;SDS011;55906;52.278;6.808;2023-03-23T13:19:40;6.47;;;2.87;;
68870;SDS011;55906;52.278;6.808;2023-03-23T13:22:21;6.75;;;3.08;;
68870;SDS011;55906;52.278;6.808;2023-03-23T13:24:53;7.50;;;3.15;;
68870;SDS011;55906;52.278;6.808;2023-03-23T13:27:23;6.50;;;2.80;;
68870;SDS011;55906;52.278;6.808;2023-03-23T13:29:53;5.18;;;2.63;;
68870;SDS011;55906;52.278;6.808;2023-03-23T13:32:22;6.03;;;2.67;;
68870;SDS011;55906;52.278;6.808;2023-03-23T13:34:57;5.30;;;2.67;;
68870;SDS011;55906;52.278;6.808;2023-03-23T13:37:27;5.30;;;2.55;;
68870;SDS011;55906;52.278;6.808;2023-03-23T13:39:54;5.60;;;2.70;;
68870;SDS011;55906;52.278;6.808;2023-03-23T13:42:24;7.07;;;3.15;;
68870;SDS011;55906;52.278;6.808;2023-03-23T13:44:56;5.27;;;3.43;;
68870;SDS011;55906;52.278;6.808;2023-03-23T13:47:37;8.90;;;3.70;;
68870;SDS011;55906;52.278;6.808;2023-03-23T13:50:10;9.23;;;4.18;;
68870;SDS011;55906;52.278;6.808;2023-03-23T13:52:46;6.72;;;3.20;;
68870;SDS011;55906;52.278;6.808;2023-03-23T13:55:18;8.82;;;3.17;;
68870;SDS011;55906;52.278;6.808;2023-03-23T13:57:52;8.13;;;3.17;;
68870;SDS011;55906;52.278;6.808;2023-03-23T14:00:35;5.78;;;2.97;;
68870;SDS011;55906;52.278;6.808;2023-03-23T14:03:13;8.43;;;3.17;;
68870;SDS011;55906;52.278;6.808;2023-03-23T14:05:43;6.07;;;2.88;;
68870;SDS011;55906;52.278;6.808;2023-03-23T14:08:12;8.45;;;3.10;;
68870;SDS011;55906;52.278;6.808;2023-03-23T14:10:49;5.40;;;2.60;;
68870;SDS011;55906;52.278;6.808;2023-03-23T14:13:19;6.75;;;3.20;;
68870;SDS011;55906;52.278;6.808;2023-03-23T14:15:57;6.53;;;3.45;;
68870;SDS011;55906;52.278;6.808;2023-03-23T14:18:29;6.88;;;3.85;;
68870;SDS011;55906;52.278;6.808;2023-03-23T14:21:00;5.30;;;3.50;;
68870;SDS011;55906;52.278;6.808;2023-03-23T14:23:27;6.20;;;3.40;;
68870;SDS011;55906;52.278;6.808;2023-03-23T14:26:01;6.20;;;3.83;;
68870;SDS011;55906;52.278;6.808;2023-03-23T14:28:32;6.45;;;3.58;;
68870;SDS011;55906;52.278;6.808;2023-03-23T14:31:04;7.38;;;3.80;;
68870;SDS011;55906;52.278;6.808;2023-03-23T14:33:32;6.53;;;3.88;;
68870;SDS011;55906;52.278;6.808;2023-03-23T14:35:59;7.63;;;4.17;;
68870;SDS011;55906;52.278;6.808;2023-03-23T14:38:26;5.78;;;3.92;;
68870;SDS011;55906;52.278;6.808;2023-03-23T14:40:59;7.38;;;2.90;;
68870;SDS011;55906;52.278;6.808;2023-03-23T14:43:29;5.95;;;2.90;;
68870;SDS011;55906;52.278;6.808;2023-03-23T14:46:00;5.43;;;2.92;;
68870;SDS011;55906;52.278;6.808;2023-03-23T14:48:28;5.93;;;2.97;;
68870;SDS011;55906;52.278;6.808;2023-03-23T14:50:59;6.82;;;2.92;;
68870;SDS011;55906;52.278;6.808;2023-03-23T14:53:30;6.35;;;3.28;;
68870;SDS011;55906;52.278;6.808;2023-03-23T14:56:00;6.18;;;2.95;;
68870;SDS011;55906;52.278;6.808;2023-03-23T14:58:30;6.65;;;2.90;;
68870;SDS011;55906;52.278;6.808;2023-03-23T15:00:58;5.87;;;3.30;;
68870;SDS011;55906;52.278;6.808;2023-03-23T15:03:27;4.75;;;2.90;;
68870;SDS011;55906;52.278;6.808;2023-03-23T15:06:00;6.32;;;3.25;;
68870;SDS011;55906;52.278;6.808;2023-03-23T15:08:32;7.45;;;3.55;;
68870;SDS011;55906;52.278;6.808;2023-03-23T15:11:04;6.95;;;3.15;;
68870;SDS011;55906;52.278;6.808;2023-03-23T15:13:34;7.30;;;3.27;;
68870;SDS011;55906;52.278;6.808;2023-03-23T15:16:03;6.28;;;3.70;;